Time;durP1;ratioP1;P1;durP2;ratioP2;P2;SDS_P1;SDS_P2;PMS_P1;PMS_P2;Temp;Humidity;BMP_temperature;BMP_pressure;BME280_temperature;BME280_humidity;BME280_pressure;Samples;Min_cycle;Max_cycle;Signal;HPM_P1;HPM_P2
2022/10/04 03:01:10;;;;;;;0.95;0.82;;;18.10;50.00;;;;;;5887247;23;46078;-67
2022/10/04 03:03:39;;;;;;;1.67;1.10;;;18.10;50.10;;;;;;4896326;28;45253;-64
2022/10/04 03:06:08;;;;;;;1.02;0.85;;;18.10;50.10;;;;;;4899993;28;45360;-67
2022/10/04 03:08:55;;;;;;;1.00;0.90;;;18.10;50.20;;;;;;4868709;28;45183;-64
2022/10/04 03:11:22;;;;;;;1.65;1.10;;;18.10;50.10;;;;;;4909858;28;44767;-64
2022/10/04 03:13:49;;;;;;;1.13;1.02;;;18.10;50.10;;;;;;4899147;28;45390;-65
2022/10/04 03:16:15;;;;;;;0.90;0.80;;;18.10;50.10;;;;;;4916052;28;45537;-65
2022/10/04 03:18:40;;;;;;;1.70;1.15;;;18.10;50.10;;;;;;4915818;28;44955;-65
2022/10/04 03:21:07;;;;;;;1.13;0.82;;;18.10;50.10;;;;;;4916376;28;45233;-65
2022/10/04 03:23:33;;;;;;;1.77;1.00;;;18.10;50.10;;;;;;4897175;28;45656;-65
2022/10/04 03:26:25;;;;;;;0.93;0.82;;;18.10;50.10;;;;;;4903846;28;46313;-65
2022/10/04 03:28:51;;;;;;;0.80;0.80;;;18.10;50.10;;;;;;4930917;28;45358;-65
2022/10/04 03:31:18;;;;;;;0.95;0.82;;;18.10;50.10;;;;;;4916723;28;45165;-65
2022/10/04 03:33:44;;;;;;;1.20;0.90;;;18.10;50.10;;;;;;4888243;28;45466;-66
2022/10/04 03:36:12;;;;;;;1.33;1.00;;;18.10;50.10;;;;;;4889293;28;47034;-67
2022/10/04 03:38:39;;;;;;;1.15;0.90;;;18.10;50.10;;;;;;4901341;28;45385;-66
2022/10/04 03:41:04;;;;;;;0.98;0.75;;;18.10;50.10;;;;;;4903517;28;46772;-65
2022/10/04 03:43:31;;;;;;;1.55;1.23;;;18.10;50.10;;;;;;4900161;28;45752;-65
2022/10/04 03:45:57;;;;;;;1.67;0.90;;;18.10;50.10;;;;;;4917027;28;45364;-65
2022/10/04 03:48:49;;;;;;;1.40;1.00;;;18.00;50.00;;;;;;4931613;28;45273;-64
2022/10/04 03:51:22;;;;;;;1.83;1.20;;;18.10;50.10;;;;;;4900342;28;45596;-65
2022/10/04 03:53:55;;;;;;;1.02;0.90;;;18.00;50.10;;;;;;4930538;28;45455;-65
2022/10/04 03:56:24;;;;;;;1.77;1.00;;;18.00;50.10;;;;;;4914478;28;46224;-65
2022/10/04 03:58:50;;;;;;;1.38;1.02;;;18.00;50.10;;;;;;4916648;28;44717;-64
2022/10/04 04:01:48;;;;;;;1.60;1.02;;;18.00;50.00;;;;;;4920279;28;45640;-65
2022/10/04 04:04:35;;;;;;;1.00;0.80;;;18.10;50.00;;;;;;4919121;28;46296;-65
2022/10/04 04:07:11;;;;;;;1.30;0.93;;;18.10;50.00;;;;;;4917327;28;45197;-65
2022/10/04 04:09:59;;;;;;;1.42;0.95;;;18.00;50.10;;;;;;4920250;28;45329;-64
2022/10/04 04:12:33;;;;;;;1.85;1.25;;;18.00;50.00;;;;;;4925758;28;45711;-65
2022/10/04 04:15:00;;;;;;;0.93;0.80;;;18.00;50.00;;;;;;4900205;28;44755;-66
2022/10/04 04:17:28;;;;;;;1.10;0.98;;;18.00;50.10;;;;;;4912978;28;46898;-65
2022/10/04 04:19:56;;;;;;;1.20;1.10;;;18.00;50.00;;;;;;4924281;28;45185;-65
2022/10/04 04:22:21;;;;;;;1.42;1.08;;;18.00;50.10;;;;;;4916063;28;45417;-65
2022/10/04 04:24:49;;;;;;;0.75;0.75;;;18.00;50.00;;;;;;4922202;28;45312;-65
2022/10/04 04:27:15;;;;;;;1.00;0.70;;;18.00;50.10;;;;;;4906091;28;46089;-65
2022/10/04 04:29:44;;;;;;;1.33;1.00;;;18.00;50.10;;;;;;4918104;28;44591;-64
2022/10/04 04:32:45;;;;;;;1.48;1.13;;;18.00;50.00;;;;;;4935977;28;45285;-67
2022/10/04 04:35:30;;;;;;;1.55;0.93;;;18.00;50.00;;;;;;4926375;28;45272;-64
2022/10/04 04:38:23;;;;;;;1.10;0.93;;;18.00;50.10;;;;;;4903144;28;47569;-65
2022/10/04 04:40:49;;;;;;;1.60;1.00;;;18.00;50.10;;;;;;4927824;28;44901;-65
2022/10/04 04:43:18;;;;;;;0.80;0.75;;;18.00;50.10;;;;;;4924850;28;45524;-65
2022/10/04 04:45:46;;;;;;;1.50;1.10;;;18.00;50.10;;;;;;4915219;28;44992;-64
2022/10/04 04:48:12;;;;;;;0.90;0.90;;;18.00;50.10;;;;;;4933882;28;45089;-65
2022/10/04 04:50:38;;;;;;;1.33;1.00;;;18.00;50.00;;;;;;4900056;28;46392;-65
2022/10/04 04:53:27;;;;;;;1.08;0.90;;;18.00;50.10;;;;;;4923820;28;45763;-63
2022/10/04 04:56:03;;;;;;;1.40;1.10;;;18.00;50.10;;;;;;4929512;28;45214;-64
2022/10/04 04:58:34;;;;;;;2.35;1.30;;;18.00;50.10;;;;;;4915427;28;44894;-64
2022/10/04 05:01:05;;;;;;;1.15;1.00;;;18.00;50.10;;;;;;4899425;28;45352;-66
2022/10/04 05:03:32;;;;;;;1.10;0.90;;;18.00;50.00;;;;;;4916442;28;45214;-63
2022/10/04 05:06:01;;;;;;;2.38;1.08;;;18.10;50.00;;;;;;4914274;28;45391;-64
2022/10/04 05:08:28;;;;;;;1.88;0.93;;;18.10;50.00;;;;;;4918624;28;46180;-64
2022/10/04 05:11:00;;;;;;;3.17;1.02;;;18.10;50.00;;;;;;4907417;28;45514;-64
2022/10/04 05:13:39;;;;;;;1.52;1.00;;;18.10;50.00;;;;;;4906660;28;44717;-64
2022/10/04 05:16:06;;;;;;;1.38;0.90;;;18.10;50.00;;;;;;4897295;28;45213;-64
2022/10/04 05:18:32;;;;;;;1.02;0.93;;;18.10;50.00;;;;;;4894624;28;46064;-64
2022/10/04 05:21:42;;;;;;;1.02;0.80;;;18.10;50.00;;;;;;4915090;28;45380;-64
2022/10/04 05:24:11;;;;;;;1.20;0.98;;;18.10;50.00;;;;;;4879864;28;44751;-64
2022/10/04 05:26:36;;;;;;;1.70;1.10;;;18.10;50.00;;;;;;4913905;28;45127;-65
2022/10/04 05:29:08;;;;;;;2.58;1.20;;;18.10;50.00;;;;;;4912364;28;46108;-65
2022/10/04 05:32:15;;;;;;;1.45;1.10;;;18.10;50.00;;;;;;4913669;28;45309;-66
2022/10/04 05:34:44;;;;;;;1.25;1.08;;;18.10;50.00;;;;;;4890502;29;44663;-66
2022/10/04 05:37:37;;;;;;;1.27;0.88;;;18.10;50.00;;;;;;4900537;28;44960;-67
2022/10/04 05:40:14;;;;;;;1.20;1.00;;;18.10;50.00;;;;;;4909499;28;45101;-64
2022/10/04 05:42:44;;;;;;;1.38;1.05;;;18.10;50.00;;;;;;4915580;28;45262;-65
2022/10/04 05:45:16;;;;;;;2.10;1.00;;;18.10;50.00;;;;;;4906564;28;44641;-65
2022/10/04 05:47:41;;;;;;;1.35;1.00;;;18.10;50.00;;;;;;4917293;28;45609;-65
2022/10/04 05:50:30;;;;;;;1.10;1.00;;;18.10;50.00;;;;;;4915401;28;45324;-65
2022/10/04 05:53:31;;;;;;;1.20;0.90;;;18.10;50.00;;;;;;4911675;28;45291;-65
2022/10/04 05:56:24;;;;;;;1.13;0.98;;;18.10;50.00;;;;;;4912095;28;45482;-64
2022/10/04 05:59:24;;;;;;;1.15;1.00;;;18.10;50.00;;;;;;4912791;28;45272;-64
2022/10/04 06:02:05;;;;;;;1.30;1.02;;;18.10;50.00;;;;;;4912125;28;46233;-64
2022/10/04 06:04:34;;;;;;;1.70;1.23;;;18.10;50.00;;;;;;4909657;28;45442;-65
2022/10/04 06:07:03;;;;;;;1.20;0.90;;;18.10;50.00;;;;;;4913330;28;45350;-67
2022/10/04 06:10:02;;;;;;;1.20;1.00;;;18.10;50.00;;;;;;4895989;28;45564;-65
2022/10/04 06:12:56;;;;;;;0.60;0.60;;;18.10;50.00;;;;;;4913682;28;45794;-66
2022/10/04 06:15:36;;;;;;;1.35;1.00;;;18.20;50.00;;;;;;4910284;28;45400;-65
2022/10/04 06:18:30;;;;;;;1.20;0.90;;;18.30;49.80;;;;;;4919997;28;45523;-65
2022/10/04 06:21:03;;;;;;;1.20;0.90;;;18.50;49.60;;;;;;4909528;28;45383;-68
2022/10/04 06:23:28;;;;;;;1.10;0.93;;;18.60;49.40;;;;;;4921127;28;47173;-67
2022/10/04 06:26:04;;;;;;;0.93;0.73;;;18.70;49.20;;;;;;4911704;28;45230;-70
2022/10/04 06:28:39;;;;;;;0.77;0.77;;;18.90;48.90;;;;;;4919225;28;45785;-65
2022/10/04 06:31:25;;;;;;;1.02;0.95;;;19.10;48.80;;;;;;4910069;28;45186;-67
2022/10/04 06:34:26;;;;;;;1.05;0.90;;;19.20;48.60;;;;;;4920061;28;45927;-66
2022/10/04 06:37:30;;;;;;;1.13;0.80;;;19.40;48.30;;;;;;4895203;28;45074;-65
2022/10/04 06:40:11;;;;;;;1.00;0.90;;;19.60;48.20;;;;;;4912096;28;45181;-66
2022/10/04 06:43:03;;;;;;;1.55;1.00;;;19.70;48.20;;;;;;4914031;28;44722;-65
2022/10/04 06:45:52;;;;;;;2.05;1.00;;;19.90;48.10;;;;;;4885502;28;46223;-67
2022/10/04 06:48:30;;;;;;;0.80;0.80;;;20.10;47.90;;;;;;4913413;28;45269;-65
2022/10/04 06:51:38;;;;;;;0.80;0.73;;;20.20;48.00;;;;;;4903548;28;45440;-65
2022/10/04 06:54:30;;;;;;;1.38;0.82;;;20.30;47.60;;;;;;4918677;28;44724;-68
2022/10/04 06:57:33;;;;;;;0.95;0.70;;;20.40;47.50;;;;;;4897727;28;45106;-69
2022/10/04 07:00:20;;;;;;;0.73;0.73;;;20.50;47.40;;;;;;4906262;28;45319;-68
2022/10/04 07:02:49;;;;;;;1.23;0.95;;;20.70;47.40;;;;;;4905416;28;45565;-68
2022/10/04 07:05:21;;;;;;;1.20;0.68;;;20.80;47.40;;;;;;4914241;28;45169;-68
2022/10/04 07:07:49;;;;;;;1.20;0.93;;;20.80;47.30;;;;;;4914391;28;46219;-66
2022/10/04 07:10:35;;;;;;;0.93;0.73;;;21.00;47.30;;;;;;4918255;28;45182;-67
2022/10/04 07:13:12;;;;;;;1.75;0.90;;;21.10;47.10;;;;;;4917466;28;45126;-65
2022/10/04 07:15:44;;;;;;;1.58;0.88;;;21.20;47.10;;;;;;4912913;28;45453;-65
2022/10/04 07:18:13;;;;;;;0.85;0.80;;;21.30;46.80;;;;;;4913941;28;47223;-70
2022/10/04 07:20:39;;;;;;;1.30;0.90;;;21.40;46.90;;;;;;4894344;28;44959;-65
2022/10/04 07:23:21;;;;;;;0.95;0.63;;;21.50;46.80;;;;;;4915728;28;45407;-69
2022/10/04 07:25:49;;;;;;;1.42;0.80;;;21.60;46.60;;;;;;4911136;28;45320;-69
2022/10/04 07:31:22;;;;;;;0.95;0.68;;;21.70;46.50;;;;;;4900204;28;45192;-69
2022/10/04 07:33:50;;;;;;;0.80;0.80;;;21.80;46.10;;;;;;4916298;28;45258;-68
2022/10/04 07:36:47;;;;;;;1.42;0.90;;;21.90;46.40;;;;;;4883390;28;45293;-70
2022/10/04 07:39:32;;;;;;;0.88;0.82;;;22.00;45.90;;;;;;4911143;28;45253;-66
2022/10/04 07:42:04;;;;;;;1.08;0.70;;;22.10;46.00;;;;;;4907767;28;44857;-64
2022/10/04 07:44:37;;;;;;;1.35;0.75;;;22.10;46.10;;;;;;4914747;28;44638;-72
2022/10/04 07:47:18;;;;;;;2.00;0.90;;;22.20;46.10;;;;;;4909643;28;45204;-69
2022/10/04 07:49:44;;;;;;;1.02;0.93;;;22.30;45.90;;;;;;4900918;28;46179;-69
2022/10/04 07:52:21;;;;;;;1.30;0.63;;;22.30;46.00;;;;;;4912604;28;44703;-70
2022/10/04 07:54:56;;;;;;;0.93;0.80;;;22.40;45.90;;;;;;4910771;28;45507;-68
2022/10/04 07:57:48;;;;;;;0.85;0.73;;;22.40;45.70;;;;;;4905889;28;45122;-67
2022/10/04 08:03:20;;;;;;;1.25;0.90;;;22.50;45.90;;;;;;5072459;27;45580;-65
2022/10/04 08:05:50;;;;;;;1.00;0.85;;;22.60;45.40;;;;;;5068046;27;45368;-66
2022/10/04 08:08:19;;;;;;;0.95;0.85;;;22.60;45.60;;;;;;5076985;27;45463;-68
2022/10/04 08:11:06;;;;;;;1.33;0.90;;;22.70;45.50;;;;;;5065746;27;45094;-66
2022/10/04 08:14:10;;;;;;;1.40;0.90;;;22.70;45.40;;;;;;5079469;27;45177;-68
2022/10/04 08:16:46;;;;;;;0.90;0.68;;;22.80;45.00;;;;;;5078374;27;45229;-65
2022/10/04 08:19:34;;;;;;;1.38;0.80;;;22.90;45.40;;;;;;5054583;27;46077;-68
2022/10/04 08:22:12;;;;;;;1.35;0.82;;;22.90;45.20;;;;;;5070762;27;44932;-66
2022/10/04 08:24:58;;;;;;;0.70;0.55;;;23.00;45.10;;;;;;5074224;27;45529;-66
2022/10/04 08:27:37;;;;;;;0.80;0.80;;;23.10;45.10;;;;;;5057027;27;45534;-68
2022/10/04 08:30:11;;;;;;;0.80;0.80;;;23.10;44.90;;;;;;5054028;27;45245;-73
2022/10/04 08:32:48;;;;;;;1.10;0.80;;;23.10;45.10;;;;;;5079769;27;45154;-65
2022/10/04 08:35:35;;;;;;;0.98;0.80;;;23.20;44.90;;;;;;5117959;27;46267;-67
2022/10/04 08:38:21;;;;;;;1.23;0.77;;;23.20;44.80;;;;;;5083464;27;45256;-67
2022/10/04 08:41:19;;;;;;;1.42;0.90;;;23.30;44.50;;;;;;5114380;27;44948;-67
2022/10/04 08:44:04;;;;;;;0.68;0.65;;;23.30;44.50;;;;;;5116915;27;44871;-67
2022/10/04 08:46:51;;;;;;;1.05;0.80;;;23.40;44.40;;;;;;5072186;27;47031;-68
2022/10/04 08:49:37;;;;;;;2.00;0.80;;;23.40;44.70;;;;;;5113913;27;45710;-67
2022/10/04 08:52:44;;;;;;;1.00;0.80;;;23.50;44.30;;;;;;5093901;27;45486;-68
2022/10/04 08:55:36;;;;;;;1.20;0.85;;;23.50;44.20;;;;;;5093177;27;45392;-66
2022/10/04 08:58:04;;;;;;;1.25;0.80;;;23.60;44.10;;;;;;5114114;27;45950;-67
2022/10/04 09:00:48;;;;;;;0.60;0.50;;;23.60;44.40;;;;;;5096340;27;45997;-67
2022/10/04 09:03:34;;;;;;;1.30;0.90;;;23.70;44.00;;;;;;5115847;27;44738;-68
2022/10/04 09:06:16;;;;;;;1.02;0.93;;;23.70;44.30;;;;;;5108693;27;45261;-66
2022/10/04 09:09:25;;;;;;;0.80;0.70;;;23.80;44.20;;;;;;5111833;27;46510;-67
2022/10/04 09:12:15;;;;;;;0.80;0.80;;;23.80;43.80;;;;;;5096109;27;45249;-64
2022/10/04 09:15:00;;;;;;;0.73;0.63;;;23.90;44.10;;;;;;5099352;27;45257;-67
2022/10/04 09:17:45;;;;;;;1.02;0.93;;;23.90;44.00;;;;;;5083956;27;44904;-69
2022/10/04 09:20:40;;;;;;;0.77;0.65;;;24.00;43.70;;;;;;5100716;27;45254;-66
2022/10/04 09:23:23;;;;;;;0.98;0.90;;;24.00;43.80;;;;;;5066222;27;45098;-70
2022/10/04 09:26:05;;;;;;;1.13;0.63;;;24.10;44.00;;;;;;5081360;27;45391;-70
2022/10/04 09:28:56;;;;;;;1.05;0.80;;;24.10;43.70;;;;;;5079392;27;45691;-68
2022/10/04 09:31:27;;;;;;;0.90;0.77;;;24.20;43.90;;;;;;5099600;27;45248;-67
2022/10/04 09:34:16;;;;;;;1.27;0.75;;;24.20;43.90;;;;;;5076015;27;46742;-66
2022/10/04 09:36:54;;;;;;;0.80;0.70;;;24.30;43.40;;;;;;5082519;27;44886;-65
2022/10/04 09:40:02;;;;;;;2.53;0.60;;;24.30;44.30;;;;;;5084936;27;45545;-66
2022/10/04 09:42:38;;;;;;;2.65;0.63;;;24.30;43.10;;;;;;5098355;27;45316;-69
2022/10/04 09:45:34;;;;;;;1.65;0.80;;;24.40;43.50;;;;;;5096622;27;45679;-67
2022/10/04 09:48:39;;;;;;;1.25;0.70;;;24.40;43.10;;;;;;5093297;27;45364;-68
2022/10/04 09:51:22;;;;;;;0.70;0.70;;;24.40;43.00;;;;;;5097266;27;45635;-67
2022/10/04 09:54:02;;;;;;;2.55;0.80;;;24.40;43.20;;;;;;5051820;27;45286;-69
2022/10/04 09:56:44;;;;;;;0.68;0.60;;;24.50;43.20;;;;;;5082399;27;46846;-68
2022/10/04 09:59:20;;;;;;;0.88;0.63;;;24.50;43.30;;;;;;5064759;27;44902;-71
2022/10/04 10:02:30;;;;;;;1.65;0.90;;;24.50;43.40;;;;;;5099776;27;45722;-68
2022/10/04 10:05:22;;;;;;;0.80;0.60;;;24.50;42.90;;;;;;5099143;27;44971;-67
2022/10/04 10:07:52;;;;;;;0.63;0.50;;;24.60;42.90;;;;;;5090993;27;44897;-66
2022/10/04 10:13:38;;;;;;;;;;;24.60;43.10;;;;;;5081257;27;44923;-66
2022/10/04 10:16:18;;;;;;;0.77;0.50;;;24.60;42.70;;;;;;5074447;27;47479;-66
2022/10/04 10:19:20;;;;;;;0.90;0.77;;;24.50;43.20;;;;;;5099647;27;45191;-65
2022/10/04 10:22:09;;;;;;;1.55;0.60;;;24.40;43.00;;;;;;5086387;27;45268;-65
2022/10/04 10:24:56;;;;;;;1.35;0.80;;;24.40;43.40;;;;;;5099864;27;44648;-66
2022/10/04 10:27:43;;;;;;;2.10;0.80;;;24.30;43.50;;;;;;5100505;27;45577;-67
2022/10/04 10:30:30;;;;;;;0.95;0.82;;;24.30;43.30;;;;;;5083082;27;45485;-68
2022/10/04 10:33:31;;;;;;;0.95;0.73;;;24.20;43.30;;;;;;5083983;27;45503;-67
2022/10/04 10:36:16;;;;;;;0.80;0.80;;;24.10;43.40;;;;;;5096942;27;45281;-65
2022/10/04 10:39:19;;;;;;;1.02;0.70;;;24.10;43.50;;;;;;5094331;27;45875;-69
2022/10/04 10:41:59;;;;;;;0.70;0.50;;;24.00;43.50;;;;;;5098136;27;45364;-64
2022/10/04 10:45:03;;;;;;;1.65;0.90;;;24.00;43.90;;;;;;5085992;27;45799;-64
2022/10/04 10:47:51;;;;;;;2.20;0.65;;;23.90;43.70;;;;;;5097397;27;44887;-66
2022/10/04 10:50:57;;;;;;;1.90;0.88;;;23.80;43.60;;;;;;5088217;27;45496;-64
2022/10/04 10:53:40;;;;;;;0.88;0.63;;;23.80;43.70;;;;;;5095358;27;45218;-67
2022/10/04 10:56:24;;;;;;;3.30;0.70;;;23.80;43.80;;;;;;5098434;27;45255;-67
2022/10/04 10:59:20;;;;;;;0.80;0.77;;;23.80;43.90;;;;;;5099252;27;45300;-65
2022/10/04 11:02:23;;;;;;;1.13;0.80;;;23.70;44.00;;;;;;5073712;27;45062;-64
2022/10/04 11:05:02;;;;;;;0.98;0.80;;;23.60;44.00;;;;;;5079938;27;45576;-66
2022/10/04 11:07:40;;;;;;;0.75;0.70;;;23.60;44.20;;;;;;5082277;27;45612;-66
2022/10/04 11:10:40;;;;;;;0.82;0.70;;;23.50;44.30;;;;;;5091470;27;44851;-68
2022/10/04 11:13:16;;;;;;;1.67;0.95;;;23.50;44.30;;;;;;5080279;27;46176;-66
2022/10/04 11:15:42;;;;;;;1.10;0.80;;;23.40;44.50;;;;;;5094741;27;45527;-64
2022/10/04 11:18:44;;;;;;;1.17;0.73;;;23.40;44.50;;;;;;5100933;27;45194;-67
2022/10/04 11:21:35;;;;;;;1.75;0.85;;;23.30;44.50;;;;;;5062018;27;44878;-66
2022/10/04 11:24:19;;;;;;;1.23;0.70;;;23.30;44.40;;;;;;5093435;27;46202;-68
2022/10/04 11:27:04;;;;;;;0.85;0.55;;;23.30;44.80;;;;;;5092465;27;44586;-70
2022/10/04 11:29:29;;;;;;;1.27;0.75;;;23.20;44.80;;;;;;5095252;27;45653;-68
2022/10/04 11:32:01;;;;;;;0.70;0.70;;;23.20;44.80;;;;;;5094201;27;45211;-67
2022/10/04 11:34:49;;;;;;;1.30;0.80;;;23.20;44.80;;;;;;5083347;27;46207;-67
2022/10/04 11:37:20;;;;;;;0.70;0.70;;;23.20;44.80;;;;;;5074403;27;44977;-66
2022/10/04 11:40:01;;;;;;;1.25;0.82;;;23.10;44.80;;;;;;5079164;27;45353;-64
2022/10/04 11:43:14;;;;;;;0.90;0.70;;;23.10;44.80;;;;;;5098329;27;45239;-66
2022/10/04 11:46:15;;;;;;;1.10;0.80;;;23.10;44.70;;;;;;5017567;27;45056;-67
2022/10/04 11:48:52;;;;;;;1.00;0.70;;;23.10;44.80;;;;;;5102804;27;45299;-65
2022/10/04 11:51:52;;;;;;;1.70;0.65;;;23.10;44.90;;;;;;5078301;27;45019;-67
2022/10/04 11:54:56;;;;;;;1.40;0.90;;;23.00;45.50;;;;;;5078543;27;45098;-68
2022/10/04 11:57:52;;;;;;;1.02;0.75;;;23.00;44.90;;;;;;5046805;27;47391;-70
2022/10/04 12:00:24;;;;;;;0.60;0.60;;;23.00;45.00;;;;;;5098357;27;44941;-67
2022/10/04 12:03:29;;;;;;;1.15;0.88;;;23.00;45.10;;;;;;5063879;27;45270;-67
2022/10/04 12:06:21;;;;;;;1.00;0.60;;;22.90;45.00;;;;;;5065132;27;45237;-66
2022/10/04 12:08:47;;;;;;;1.08;0.73;;;22.90;45.00;;;;;;5079799;27;44959;-69
2022/10/04 12:14:42;;;;;;;1.85;0.63;;;22.90;45.10;;;;;;5078481;27;45521;-68
2022/10/04 12:17:08;;;;;;;0.77;0.60;;;22.90;45.50;;;;;;5098589;27;45343;-68
2022/10/04 12:20:09;;;;;;;1.48;0.73;;;22.80;45.30;;;;;;5099580;27;45925;-70
2022/10/04 12:22:40;;;;;;;1.73;0.80;;;22.90;45.30;;;;;;5070253;27;45385;-69
2022/10/04 12:25:11;;;;;;;0.82;0.70;;;22.80;45.30;;;;;;5081183;27;45414;-69
2022/10/04 12:27:37;;;;;;;1.23;0.68;;;22.80;45.30;;;;;;5078307;27;45250;-66
2022/10/04 12:30:26;;;;;;;1.27;0.90;;;22.80;45.40;;;;;;5094634;27;45955;-72
2022/10/04 12:33:24;;;;;;;0.70;0.60;;;22.80;45.30;;;;;;5085299;27;46019;-68
2022/10/04 12:36:23;;;;;;;0.70;0.70;;;22.70;45.40;;;;;;5062755;27;48205;-69
2022/10/04 12:39:15;;;;;;;1.40;0.77;;;22.70;45.40;;;;;;5104597;27;45484;-69
2022/10/04 12:41:56;;;;;;;0.70;0.63;;;22.70;45.50;;;;;;5081599;27;45083;-67
2022/10/04 12:44:39;;;;;;;0.85;0.70;;;22.70;45.50;;;;;;5078164;27;44995;-69
2022/10/04 12:47:08;;;;;;;;;;;22.70;45.60;;;;;;5094106;27;45322;-70
2022/10/04 12:49:48;;;;;;;0.98;0.65;;;22.60;45.70;;;;;;5087961;27;45040;-68
2022/10/04 12:52:24;;;;;;;0.80;0.80;;;22.70;45.60;;;;;;5084200;27;45192;-69
2022/10/04 12:54:52;;;;;;;2.47;0.60;;;22.60;45.60;;;;;;5080888;27;44696;-69
2022/10/04 12:57:44;;;;;;;0.77;0.57;;;22.60;45.60;;;;;;5099421;27;44734;-70
2022/10/04 13:00:21;;;;;;;1.17;0.80;;;22.60;45.60;;;;;;5069762;27;45025;-67
2022/10/04 13:03:39;;;;;;;0.68;0.68;;;22.60;45.70;;;;;;5076517;27;45268;-67
2022/10/04 13:06:18;;;;;;;0.77;0.70;;;22.60;45.70;;;;;;5052926;27;45106;-69
2022/10/04 13:09:10;;;;;;;1.02;0.68;;;22.60;45.70;;;;;;5086631;27;45204;-71
2022/10/04 13:12:06;;;;;;;0.93;0.68;;;22.60;45.70;;;;;;5100993;27;45928;-67
2022/10/04 13:14:48;;;;;;;0.77;0.68;;;22.50;45.80;;;;;;5102258;27;45976;-68
2022/10/04 13:17:32;;;;;;;1.65;0.80;;;22.50;45.80;;;;;;5061287;27;45562;-67
2022/10/04 13:20:23;;;;;;;0.85;0.68;;;22.50;45.80;;;;;;5084807;27;45398;-68
2022/10/04 13:22:59;;;;;;;0.73;0.70;;;22.50;45.90;;;;;;5097718;27;45218;-71
2022/10/04 13:25:44;;;;;;;1.55;0.60;;;22.50;45.90;;;;;;5081659;27;45523;-68
2022/10/04 13:28:27;;;;;;;0.82;0.70;;;22.50;45.90;;;;;;5083842;27;45591;-69
2022/10/04 13:31:15;;;;;;;1.60;0.63;;;22.40;45.90;;;;;;5100860;27;45338;-66
2022/10/04 13:34:11;;;;;;;1.05;0.70;;;22.50;46.00;;;;;;5082314;27;45695;-69
2022/10/04 13:36:45;;;;;;;1.40;0.60;;;22.50;46.00;;;;;;5100630;27;45372;-68
2022/10/04 13:39:20;;;;;;;0.90;0.60;;;22.50;46.00;;;;;;5099384;27;45169;-68
2022/10/04 13:41:59;;;;;;;0.82;0.60;;;22.40;46.00;;;;;;5080433;27;45503;-67
2022/10/04 13:44:46;;;;;;;0.50;0.50;;;22.40;46.10;;;;;;5079239;27;45629;-69
2022/10/04 13:47:45;;;;;;;1.23;0.80;;;22.40;46.10;;;;;;5078454;27;45111;-72
2022/10/04 13:50:16;;;;;;;0.75;0.63;;;22.40;46.10;;;;;;5065686;27;45389;-67
2022/10/04 13:59:00;;;;;;;2.22;0.82;;;22.40;46.10;;;;;;5067918;27;45962;-67
2022/10/04 14:01:36;;;;;;;1.20;0.90;;;22.40;46.20;;;;;;5082559;27;45554;-67
2022/10/04 14:04:40;;;;;;;1.38;0.70;;;22.40;46.20;;;;;;5084039;27;45262;-67
2022/10/04 14:07:29;;;;;;;1.10;0.70;;;22.40;46.20;;;;;;5089782;27;45354;-65
2022/10/04 14:10:01;;;;;;;0.80;0.75;;;22.40;46.20;;;;;;5083701;27;46055;-65
2022/10/04 14:13:24;;;;;;;1.05;0.68;;;22.40;46.20;;;;;;5083488;27;45137;-66
2022/10/04 14:16:20;;;;;;;0.73;0.63;;;22.30;46.20;;;;;;5026257;28;44752;-67
2022/10/04 14:19:17;;;;;;;1.20;0.70;;;22.30;46.20;;;;;;5007807;28;44867;-70
2022/10/04 14:22:07;;;;;;;0.63;0.55;;;22.30;46.20;;;;;;5100616;27;44963;-68
2022/10/04 14:24:43;;;;;;;0.75;0.75;;;22.30;46.30;;;;;;5099140;27;45225;-68
2022/10/04 14:27:24;;;;;;;1.13;0.85;;;22.30;46.30;;;;;;5096683;27;45542;-69
2022/10/04 14:30:18;;;;;;;2.13;0.90;;;22.30;46.30;;;;;;5078577;27;45344;-71
2022/10/04 14:33:08;;;;;;;1.50;0.88;;;22.30;46.30;;;;;;5074086;27;46212;-67
2022/10/04 14:35:52;;;;;;;0.98;0.60;;;22.30;46.40;;;;;;5100969;27;45533;-66
2022/10/04 14:38:19;;;;;;;1.00;0.90;;;22.30;46.40;;;;;;5086859;27;45236;-67
2022/10/04 14:40:57;;;;;;;1.55;0.50;;;22.40;46.20;;;;;;5098279;27;45175;-67
2022/10/04 14:43:59;;;;;;;0.68;0.63;;;22.30;46.40;;;;;;5098326;27;45398;-66
2022/10/04 14:46:39;;;;;;;0.93;0.60;;;22.30;46.50;;;;;;5080253;27;45311;-73
2022/10/04 14:49:36;;;;;;;2.83;0.60;;;22.20;46.50;;;;;;5100241;27;45597;-69
2022/10/04 14:52:13;;;;;;;0.93;0.60;;;22.20;46.60;;;;;;5098000;27;45173;-67
2022/10/04 14:54:55;;;;;;;2.78;0.70;;;22.20;46.60;;;;;;5094672;27;45995;-70
2022/10/04 14:58:01;;;;;;;1.92;0.70;;;22.20;46.60;;;;;;5075157;27;45339;-67
2022/10/04 15:00:32;;;;;;;0.70;0.60;;;22.20;46.70;;;;;;5078953;27;46521;-68
2022/10/04 15:03:29;;;;;;;3.70;0.98;;;22.20;46.60;;;;;;5098086;27;45414;-66
2022/10/04 15:06:15;;;;;;;0.55;0.50;;;22.20;46.60;;;;;;5076119;27;45858;-72
2022/10/04 15:08:56;;;;;;;0.63;0.50;;;22.10;46.60;;;;;;5065024;27;45226;-71
2022/10/04 15:11:52;;;;;;;1.63;0.75;;;22.10;46.70;;;;;;5078148;27;45255;-70
2022/10/04 15:15:06;;;;;;;1.75;0.63;;;22.10;46.70;;;;;;5078683;27;44725;-71
2022/10/04 15:17:36;;;;;;;1.27;0.60;;;22.10;46.70;;;;;;5027804;27;46181;-70
2022/10/04 15:20:18;;;;;;;0.82;0.63;;;22.10;46.80;;;;;;5058650;28;45213;-67
2022/10/04 15:22:51;;;;;;;1.30;0.65;;;22.00;46.70;;;;;;5076051;27;45186;-69
2022/10/04 15:25:39;;;;;;;0.80;0.60;;;22.00;46.70;;;;;;5070090;27;45202;-68
2022/10/04 15:28:12;;;;;;;1.00;0.73;;;22.00;46.70;;;;;;5064020;27;46203;-71
2022/10/04 15:30:45;;;;;;;3.35;0.90;;;22.00;46.80;;;;;;5082537;27;45385;-68
2022/10/04 15:33:29;;;;;;;2.83;0.70;;;21.90;46.80;;;;;;5096983;27;46205;-69
2022/10/04 15:36:01;;;;;;;2.08;0.70;;;21.90;46.90;;;;;;5093151;27;44849;-70
2022/10/04 15:38:45;;;;;;;0.95;0.70;;;21.90;46.90;;;;;;5094977;27;45392;-69
2022/10/04 15:41:36;;;;;;;1.70;0.80;;;21.90;46.90;;;;;;5085985;27;45239;-70
2022/10/04 15:44:11;;;;;;;0.90;0.40;;;22.10;46.60;;;;;;5095735;27;45141;-70
2022/10/04 15:46:46;;;;;;;0.82;0.70;;;22.00;46.90;;;;;;5094634;27;45155;-69
2022/10/04 15:49:29;;;;;;;2.25;0.60;;;21.90;46.90;;;;;;5094825;27;45349;-75
2022/10/04 15:52:08;;;;;;;;;;;21.90;47.00;;;;;;5096213;27;45005;-68
2022/10/04 15:55:02;;;;;;;2.05;0.60;;;21.80;47.00;;;;;;5097815;27;45295;-70
2022/10/04 15:57:53;;;;;;;1.50;0.70;;;21.80;47.00;;;;;;5080447;27;45051;-67
2022/10/04 16:00:22;;;;;;;0.82;0.52;;;21.80;47.00;;;;;;5094071;27;45508;-69
2022/10/04 16:02:56;;;;;;;1.30;0.60;;;21.80;47.00;;;;;;5095995;27;45350;-73
2022/10/04 16:05:36;;;;;;;0.63;0.50;;;21.80;47.10;;;;;;5089548;27;45469;-70
2022/10/04 16:08:10;;;;;;;0.70;0.57;;;21.70;47.00;;;;;;5097839;27;45220;-67
2022/10/04 16:10:59;;;;;;;0.68;0.68;;;21.80;47.00;;;;;;5086037;27;47264;-67
2022/10/04 16:13:42;;;;;;;1.90;0.70;;;21.70;47.00;;;;;;5080605;27;45471;-69
2022/10/04 16:16:14;;;;;;;0.52;0.52;;;21.80;47.00;;;;;;5044664;27;45222;-69
2022/10/04 16:19:01;;;;;;;0.90;0.43;;;21.70;47.10;;;;;;5096950;27;45256;-67
2022/10/04 16:21:42;;;;;;;1.45;0.47;;;21.70;47.10;;;;;;5089382;27;46192;-74
2022/10/04 16:24:16;;;;;;;0.82;0.65;;;21.70;47.10;;;;;;5059817;27;45356;-69
2022/10/04 16:26:45;;;;;;;0.90;0.60;;;21.70;47.10;;;;;;5093255;27;45474;-68
2022/10/04 16:29:23;;;;;;;0.88;0.50;;;21.60;47.10;;;;;;5091928;27;45533;-75
2022/10/04 16:32:02;;;;;;;1.65;0.63;;;21.60;47.10;;;;;;5079674;27;46109;-72
2022/10/04 16:34:44;;;;;;;2.13;0.70;;;21.60;47.10;;;;;;5054792;27;45608;-70
2022/10/04 16:37:09;;;;;;;1.08;0.73;;;21.60;47.10;;;;;;5080580;27;45205;-70
2022/10/04 16:40:04;;;;;;;0.73;0.50;;;21.60;47.10;;;;;;5095084;27;45089;-70
2022/10/04 16:42:56;;;;;;;2.97;0.68;;;21.60;47.20;;;;;;5065525;27;45300;-69
2022/10/04 16:45:47;;;;;;;1.13;0.60;;;21.50;47.10;;;;;;5076244;27;45592;-69
2022/10/04 16:48:37;;;;;;;1.30;0.77;;;21.50;47.10;;;;;;5065089;27;45472;-68
2022/10/04 16:51:03;;;;;;;1.00;0.60;;;21.50;47.20;;;;;;5095229;27;45231;-69
2022/10/04 16:53:38;;;;;;;0.45;0.38;;;21.50;47.20;;;;;;5095871;27;46093;-68
2022/10/04 16:56:14;;;;;;;1.02;0.50;;;21.50;47.20;;;;;;5097496;27;45485;-69
2022/10/04 16:59:01;;;;;;;1.25;0.68;;;21.50;47.30;;;;;;5075409;27;45325;-70
2022/10/04 17:01:38;;;;;;;1.40;0.50;;;21.50;47.30;;;;;;5090871;27;45039;-67
2022/10/04 17:04:35;;;;;;;0.98;0.50;;;21.40;47.30;;;;;;5075540;27;45944;-69
2022/10/04 17:07:13;;;;;;;0.75;0.60;;;21.40;47.30;;;;;;5095650;27;45557;-71
2022/10/04 17:09:55;;;;;;;0.75;0.45;;;21.40;47.30;;;;;;5090104;27;45661;-68
2022/10/04 17:12:40;;;;;;;0.63;0.60;;;21.40;47.40;;;;;;5075226;27;46210;-68
2022/10/04 17:15:43;;;;;;;0.82;0.60;;;21.30;47.30;;;;;;5063237;27;45062;-66
2022/10/04 17:18:41;;;;;;;0.47;0.43;;;21.30;47.40;;;;;;5062493;27;45757;-70
2022/10/04 17:21:22;;;;;;;0.80;0.60;;;21.30;47.40;;;;;;5092686;27;45293;-67
2022/10/04 17:24:04;;;;;;;0.70;0.55;;;21.30;47.50;;;;;;5066422;27;45197;-73